createdAt,value
2023-02-13T00:01:04.326Z,20.02
2023-02-13T00:03:32.878Z,18.55
2023-02-13T00:06:02.104Z,19.80
2023-02-13T00:08:30.128Z,20.27
2023-02-13T00:10:58.218Z,20.55
2023-02-13T00:13:26.436Z,20.23
2023-02-13T00:15:58.254Z,20.65
2023-02-13T00:18:26.074Z,19.50
2023-02-13T00:21:02.790Z,20.08
2023-02-13T00:23:32.252Z,18.40
2023-02-13T00:26:00.061Z,18.90
2023-02-13T00:28:29.382Z,20.08
2023-02-13T00:31:04.622Z,19.63
2023-02-13T00:33:34.127Z,19.83
2023-02-13T00:36:10.003Z,19.73
2023-02-13T00:38:38.946Z,19.38
2023-02-13T00:41:07.514Z,18.77
2023-02-13T00:43:36.132Z,19.05
2023-02-13T00:46:04.762Z,19.30
2023-02-13T00:48:35.362Z,19.45
2023-02-13T00:51:03.871Z,18.63
2023-02-13T00:53:33.168Z,19.48
2023-02-13T00:56:01.273Z,18.35
2023-02-13T00:58:29.261Z,19.05
2023-02-13T01:00:59.178Z,19.77
2023-02-13T01:03:27.383Z,18.83
2023-02-13T01:05:55.561Z,19.90
2023-02-13T01:08:23.451Z,19.67
2023-02-13T01:10:52.624Z,18.92
2023-02-13T01:13:21.086Z,19.27
2023-02-13T01:15:49.829Z,19.33
2023-02-13T01:18:19.537Z,19.15
2023-02-13T01:20:58.088Z,20.17
2023-02-13T01:23:26.295Z,18.52
2023-02-13T01:25:56.447Z,20.27
2023-02-13T01:28:26.704Z,19.38
2023-02-13T01:30:57.514Z,18.90
2023-02-13T01:33:27.449Z,18.95
2023-02-13T01:35:55.485Z,20.23
2023-02-13T01:38:23.457Z,20.40
2023-02-13T01:40:54.376Z,18.85
2023-02-13T01:43:26.353Z,19.10
2023-02-13T01:45:58.167Z,20.17
2023-02-13T01:48:27.704Z,18.73
2023-02-13T01:51:00.134Z,19.33
2023-02-13T01:53:30.464Z,18.45
2023-02-13T01:56:02.345Z,18.92
2023-02-13T01:58:34.920Z,19.38
2023-02-13T02:01:04.253Z,18.45
2023-02-13T02:03:36.356Z,19.48
2023-02-13T02:06:09.011Z,19.73
2023-02-13T02:08:36.969Z,19.00
2023-02-13T02:11:09.775Z,18.08
2023-02-13T02:13:39.004Z,18.85
2023-02-13T02:16:10.646Z,17.90
2023-02-13T02:18:38.482Z,18.65
2023-02-13T02:21:28.387Z,17.92
2023-02-13T02:24:49.845Z,19.08
2023-02-13T02:27:30.198Z,17.13
2023-02-13T02:30:28.348Z,17.90
2023-02-13T02:33:10.829Z,18.45
2023-02-13T02:35:45.543Z,19.38
2023-02-13T02:38:32.488Z,19.90
2023-02-13T02:41:07.964Z,18.90
2023-02-13T02:43:49.052Z,18.67
2023-02-13T02:46:23.255Z,18.83
2023-02-13T02:49:14.964Z,18.70
2023-02-13T02:51:49.648Z,18.85
2023-02-13T02:57:10.533Z,18.70
2023-02-13T02:59:59.192Z,18.30
2023-02-13T03:02:45.355Z,17.80
2023-02-13T03:05:39.180Z,19.23
2023-02-13T03:08:07.822Z,19.03
2023-02-13T03:11:01.501Z,18.88
2023-02-13T03:13:40.401Z,18.20
2023-02-13T03:16:31.256Z,19.88
2023-02-13T03:19:17.259Z,18.58
2023-02-13T03:22:07.409Z,19.42
2023-02-13T03:24:42.174Z,18.92
2023-02-13T03:27:13.472Z,17.88
2023-02-13T03:30:04.729Z,18.55
2023-02-13T03:32:38.134Z,18.67
2023-02-13T03:35:38.043Z,18.83
2023-02-13T03:38:13.401Z,18.42
2023-02-13T03:41:05.858Z,18.40
2023-02-13T03:43:40.127Z,18.55
2023-02-13T03:46:08.549Z,20.30
2023-02-13T03:49:04.394Z,19.23
2023-02-13T03:51:35.986Z,20.52
2023-02-13T03:54:09.254Z,20.02
2023-02-13T03:56:58.485Z,19.60
2023-02-13T03:59:31.288Z,19.35
2023-02-13T04:02:02.746Z,19.27
2023-02-13T04:04:37.925Z,19.30
2023-02-13T04:07:07.715Z,19.60
2023-02-13T04:09:39.890Z,19.40
2023-02-13T04:12:14.986Z,20.45
2023-02-13T04:14:48.598Z,19.95
2023-02-13T04:17:21.161Z,20.90
2023-02-13T04:19:49.645Z,19.80
2023-02-13T04:22:17.506Z,21.85
2023-02-13T04:24:46.846Z,20.23
2023-02-13T04:27:16.828Z,19.48
2023-02-13T04:29:44.816Z,20.20
2023-02-13T04:32:14.281Z,20.08
2023-02-13T04:34:42.992Z,21.40
2023-02-13T04:37:10.894Z,20.70
2023-02-13T04:39:38.709Z,20.30
2023-02-13T04:42:07.899Z,20.73
2023-02-13T04:44:37.270Z,20.95
2023-02-13T04:47:05.329Z,20.83
2023-02-13T04:49:33.278Z,22.42
2023-02-13T04:52:02.789Z,20.85
2023-02-13T04:54:30.656Z,23.10
2023-02-13T04:57:00.424Z,21.48
2023-02-13T04:59:29.567Z,21.58
2023-02-13T05:01:59.295Z,21.80
2023-02-13T05:04:27.186Z,21.02
2023-02-13T05:06:55.023Z,21.77
2023-02-13T05:09:22.836Z,22.88
2023-02-13T05:11:53.018Z,20.52
2023-02-13T05:14:21.547Z,21.83
2023-02-13T05:16:51.478Z,21.38
2023-02-13T05:19:19.324Z,21.80
2023-02-13T05:22:04.739Z,22.17
2023-02-13T05:24:32.781Z,21.33
2023-02-13T05:27:00.553Z,23.90
2023-02-13T05:29:28.402Z,22.42
2023-02-13T05:31:59.825Z,22.40
2023-02-13T05:34:29.750Z,22.95
2023-02-13T05:36:58.163Z,22.10
2023-02-13T05:39:26.135Z,23.52
2023-02-13T05:41:55.844Z,23.42
2023-02-13T05:44:23.822Z,23.38
2023-02-13T05:46:53.281Z,23.58
2023-02-13T05:49:23.162Z,23.70
2023-02-13T05:51:52.466Z,23.90
2023-02-13T05:54:20.769Z,24.00
2023-02-13T05:56:48.762Z,23.77
2023-02-13T05:59:16.700Z,23.83
2023-02-13T06:01:44.594Z,24.45
2023-02-13T06:04:12.831Z,24.17
2023-02-13T06:06:42.784Z,23.90
2023-02-13T06:09:10.776Z,25.92
2023-02-13T06:11:39.675Z,22.17
2023-02-13T06:14:07.531Z,24.00
2023-02-13T06:16:35.446Z,24.38
2023-02-13T06:19:03.343Z,25.17
2023-02-13T06:21:31.138Z,24.30
2023-02-13T06:24:00.601Z,23.92
2023-02-13T06:26:32.281Z,24.55
2023-02-13T06:29:04.545Z,26.15
2023-02-13T06:31:33.608Z,24.95
2023-02-13T06:34:01.456Z,22.90
2023-02-13T06:36:29.406Z,25.23
2023-02-13T06:38:57.255Z,22.85
2023-02-13T06:41:27.956Z,22.92
2023-02-13T06:43:55.694Z,24.67
2023-02-13T06:46:23.616Z,22.98
2023-02-13T06:48:51.437Z,24.55
2023-02-13T06:51:19.257Z,24.55
2023-02-13T06:53:49.586Z,23.05
2023-02-13T06:56:17.697Z,24.13
2023-02-13T06:58:47.239Z,24.30
2023-02-13T07:01:15.190Z,24.88
2023-02-13T07:03:43.097Z,24.92
2023-02-13T07:06:10.912Z,24.60
2023-02-13T07:08:41.678Z,25.00
2023-02-13T07:11:09.440Z,25.33
2023-02-13T07:13:37.163Z,23.85
2023-02-13T07:16:07.197Z,23.92
2023-02-13T07:18:36.500Z,24.23
2023-02-13T07:21:05.767Z,23.95
2023-02-13T07:23:33.668Z,23.30
2023-02-13T07:26:01.908Z,24.30
2023-02-13T07:28:30.757Z,24.70
2023-02-13T07:30:58.935Z,24.05
2023-02-13T07:33:28.525Z,23.95
2023-02-13T07:35:58.526Z,24.65
2023-02-13T07:38:26.310Z,23.95
2023-02-13T07:40:55.546Z,24.05
2023-02-13T07:43:23.601Z,23.65
2023-02-13T07:45:55.593Z,23.67
2023-02-13T07:48:23.491Z,25.95
2023-02-13T07:50:52.487Z,24.75
2023-02-13T07:53:20.377Z,24.60
2023-02-13T07:55:48.113Z,22.83
2023-02-13T07:58:15.850Z,24.73
2023-02-13T08:00:43.967Z,24.15
2023-02-13T08:03:11.858Z,24.45
2023-02-13T08:05:40.845Z,23.60
2023-02-13T08:08:10.023Z,25.40
2023-02-13T08:10:55.607Z,23.50
2023-02-13T08:13:23.504Z,24.00
2023-02-13T08:15:51.250Z,23.67
2023-02-13T08:18:20.173Z,23.83
2023-02-13T08:20:48.540Z,23.55
2023-02-13T08:23:17.840Z,23.42
2023-02-13T08:25:47.600Z,23.33
2023-02-13T08:28:15.608Z,23.75
2023-02-13T08:30:44.759Z,24.13
2023-02-13T08:33:12.520Z,23.42
2023-02-13T08:35:40.644Z,22.40
2023-02-13T08:38:08.504Z,24.63
2023-02-13T08:40:38.526Z,23.42
2023-02-13T08:43:08.536Z,23.95
2023-02-13T08:45:36.743Z,24.70
2023-02-13T08:48:05.185Z,24.70
2023-02-13T08:50:33.951Z,23.42
2023-02-13T08:53:04.559Z,23.17
2023-02-13T08:55:33.091Z,22.85
2023-02-13T08:58:02.831Z,21.35
2023-02-13T09:00:31.579Z,23.10
2023-02-13T09:03:02.216Z,23.70
2023-02-13T09:05:31.817Z,22.05
2023-02-13T09:08:01.509Z,22.88
2023-02-13T09:10:29.494Z,23.33
2023-02-13T09:12:57.245Z,21.90
2023-02-13T09:15:26.662Z,21.20
2023-02-13T09:17:54.416Z,21.80
2023-02-13T09:20:22.355Z,21.52
2023-02-13T09:22:50.274Z,22.23
2023-02-13T09:25:19.959Z,21.58
2023-02-13T09:27:47.723Z,22.42
2023-02-13T09:30:23.554Z,20.05
2023-02-13T09:32:54.090Z,21.88
2023-02-13T09:35:22.598Z,22.50
2023-02-13T09:37:51.438Z,20.23
2023-02-13T09:40:22.681Z,20.63
2023-02-13T09:42:51.259Z,21.08
2023-02-13T09:45:20.170Z,21.90
2023-02-13T09:47:48.400Z,20.67
2023-02-13T09:50:20.356Z,28.23
2023-02-13T09:52:48.957Z,24.73
2023-02-13T09:55:18.441Z,25.55
2023-02-13T09:57:51.498Z,23.02
2023-02-13T10:00:23.103Z,23.52
2023-02-13T10:03:01.330Z,21.67
2023-02-13T10:05:57.404Z,21.42
2023-02-13T10:08:38.216Z,27.13
2023-02-13T10:11:16.704Z,22.10
2023-02-13T10:13:52.829Z,24.63
2023-02-13T10:16:22.116Z,22.80
2023-02-13T10:18:53.110Z,21.45
2023-02-13T10:21:24.516Z,21.92
2023-02-13T10:23:56.331Z,21.00
2023-02-13T10:26:42.536Z,21.27
2023-02-13T10:29:34.126Z,21.55
2023-02-13T10:32:05.513Z,21.90
2023-02-13T10:34:39.075Z,23.58
2023-02-13T10:37:15.587Z,20.75
2023-02-13T10:39:45.859Z,22.73
2023-02-13T10:42:23.201Z,22.17
2023-02-13T10:45:01.381Z,20.77
2023-02-13T10:47:41.243Z,21.75
2023-02-13T10:50:19.091Z,21.20
2023-02-13T10:52:55.037Z,19.98
2023-02-13T10:55:32.619Z,20.75
2023-02-13T10:58:09.725Z,20.42
2023-02-13T11:00:43.141Z,19.92
2023-02-13T11:03:19.936Z,18.35
2023-02-13T11:05:47.852Z,19.35
2023-02-13T11:08:21.769Z,19.25
2023-02-13T11:10:49.926Z,19.55
2023-02-13T11:13:19.561Z,18.10
2023-02-13T11:16:02.717Z,18.52
2023-02-13T11:18:34.197Z,18.67
2023-02-13T11:21:10.480Z,18.98
2023-02-13T11:23:43.130Z,19.85
2023-02-13T11:26:15.297Z,19.35
2023-02-13T11:28:50.073Z,18.15
2023-02-13T11:31:25.155Z,19.73
2023-02-13T11:33:53.431Z,19.40
2023-02-13T11:36:26.828Z,19.23
2023-02-13T11:39:04.792Z,18.40
2023-02-13T11:41:38.304Z,18.30
2023-02-13T11:44:07.000Z,20.60
2023-02-13T11:46:45.149Z,19.65
2023-02-13T11:49:18.471Z,18.00
2023-02-13T11:51:47.377Z,18.67
2023-02-13T11:54:41.140Z,18.33
2023-02-13T11:57:21.143Z,18.65
2023-02-13T11:59:50.653Z,18.63
2023-02-13T12:02:21.140Z,19.05
2023-02-13T12:04:53.792Z,18.85
2023-02-13T12:07:24.887Z,23.17
2023-02-13T12:10:01.994Z,21.40
2023-02-13T12:12:39.402Z,20.98
2023-02-13T12:15:17.387Z,20.25
2023-02-13T12:17:46.113Z,19.52
2023-02-13T12:20:15.464Z,19.42
2023-02-13T12:22:54.340Z,22.10
2023-02-13T12:25:43.287Z,32.08
2023-02-13T12:28:14.378Z,21.92
2023-02-13T12:31:14.133Z,20.35
2023-02-13T12:33:56.872Z,25.50
2023-02-13T12:36:27.957Z,19.83
2023-02-13T12:39:06.191Z,18.38
2023-02-13T12:41:40.333Z,17.45
2023-02-13T12:46:58.414Z,17.60
2023-02-13T12:49:43.074Z,16.88
2023-02-13T12:52:22.325Z,18.00
2023-02-13T12:55:01.596Z,17.15
2023-02-13T12:57:41.210Z,19.42
2023-02-13T13:00:18.726Z,16.90
2023-02-13T13:02:58.107Z,15.85
2023-02-13T13:05:35.255Z,15.55
2023-02-13T13:08:18.759Z,15.77
2023-02-13T13:10:57.753Z,16.42
2023-02-13T13:13:38.985Z,16.30
2023-02-13T13:16:11.491Z,17.58
2023-02-13T13:18:51.168Z,17.77
2023-02-13T13:21:27.474Z,20.92
2023-02-13T13:24:00.521Z,17.55
2023-02-13T13:26:35.171Z,18.33
2023-02-13T13:29:07.165Z,15.75
2023-02-13T13:31:38.089Z,16.13
2023-02-13T13:34:10.081Z,14.75
2023-02-13T13:36:44.439Z,15.25
2023-02-13T13:39:26.821Z,17.25
2023-02-13T13:42:02.506Z,15.13
2023-02-13T13:44:49.008Z,15.00
2023-02-13T13:47:25.546Z,13.63
2023-02-13T13:49:55.330Z,14.60
2023-02-13T13:52:27.334Z,14.65
2023-02-13T13:54:56.759Z,14.05
2023-02-13T13:57:25.310Z,15.02
2023-02-13T14:00:04.346Z,14.73
2023-02-13T14:02:45.406Z,14.25
2023-02-13T14:05:29.340Z,14.10
2023-02-13T14:07:58.640Z,15.02
2023-02-13T14:11:09.281Z,13.98
2023-02-13T14:13:39.978Z,14.10
2023-02-13T14:16:12.275Z,13.93
2023-02-13T14:18:46.772Z,13.57
2023-02-13T14:21:23.846Z,13.93
2023-02-13T14:23:53.385Z,14.30
2023-02-13T14:26:30.078Z,15.27
2023-02-13T14:29:22.564Z,14.43
2023-02-13T14:32:07.284Z,18.02
2023-02-13T14:34:37.799Z,14.57
2023-02-13T14:37:21.060Z,15.95
2023-02-13T14:40:12.035Z,17.80
2023-02-13T14:42:40.439Z,14.38
2023-02-13T14:45:16.311Z,15.77
2023-02-13T14:47:51.036Z,15.95
2023-02-13T14:50:22.927Z,18.85
2023-02-13T14:52:51.820Z,19.23
2023-02-13T14:55:30.113Z,14.27
2023-02-13T14:58:06.124Z,15.70
2023-02-13T15:00:41.038Z,15.65
2023-02-13T15:03:21.205Z,16.52
2023-02-13T15:05:52.352Z,14.07
2023-02-13T15:08:21.809Z,15.48
2023-02-13T15:10:51.683Z,15.25
2023-02-13T15:13:22.379Z,17.17
2023-02-13T15:15:53.641Z,20.70
2023-02-13T15:18:26.104Z,18.60
2023-02-13T15:20:56.606Z,16.60
2023-02-13T15:23:26.609Z,24.52
2023-02-13T15:25:59.262Z,18.70
2023-02-13T15:28:27.966Z,16.35
2023-02-13T15:30:58.907Z,15.60
2023-02-13T15:33:29.994Z,15.55
2023-02-13T15:35:59.831Z,16.10
2023-02-13T15:38:29.493Z,15.52
2023-02-13T15:41:02.493Z,16.55
2023-02-13T15:43:35.775Z,16.08
2023-02-13T15:46:06.687Z,21.67
2023-02-13T15:48:39.824Z,36.17
2023-02-13T15:51:08.658Z,29.60
2023-02-13T15:53:37.552Z,33.25
2023-02-13T15:56:13.919Z,34.83
2023-02-13T15:58:42.568Z,23.58
2023-02-13T16:01:11.642Z,24.48
2023-02-13T16:03:42.048Z,21.63
2023-02-13T16:06:14.925Z,19.10
2023-02-13T16:08:47.483Z,16.30
2023-02-13T16:11:21.620Z,22.67
2023-02-13T16:16:45.718Z,15.88
2023-02-13T16:19:30.570Z,15.70
2023-02-13T16:22:00.970Z,15.90
2023-02-13T16:24:29.229Z,16.55
2023-02-13T16:26:57.588Z,15.77
2023-02-13T16:29:29.547Z,16.92
2023-02-13T16:32:07.568Z,15.88
2023-02-13T16:34:39.572Z,15.82
2023-02-13T16:37:28.817Z,15.35
2023-02-13T16:39:56.662Z,14.20
2023-02-13T16:42:25.116Z,14.68
2023-02-13T16:45:22.144Z,15.50
2023-02-13T16:47:50.954Z,14.57
2023-02-13T16:50:20.297Z,15.45
2023-02-13T16:52:48.060Z,15.07
2023-02-13T16:55:17.282Z,15.55
2023-02-13T16:57:49.165Z,15.98
2023-02-13T17:00:21.898Z,15.45
2023-02-13T17:02:50.805Z,16.77
2023-02-13T17:05:28.174Z,16.48
2023-02-13T17:07:59.337Z,18.27
2023-02-13T17:10:29.109Z,18.40
2023-02-13T17:12:58.411Z,22.25
2023-02-13T17:15:27.864Z,22.30
2023-02-13T17:17:56.835Z,24.98
2023-02-13T17:20:28.203Z,24.90
2023-02-13T17:22:57.596Z,24.00
2023-02-13T17:25:27.321Z,23.70
2023-02-13T17:27:57.719Z,20.80
2023-02-13T17:30:28.137Z,21.08
2023-02-13T17:32:58.859Z,20.73
2023-02-13T17:35:28.023Z,20.85
2023-02-13T17:37:55.909Z,22.58
2023-02-13T17:40:30.214Z,19.98
2023-02-13T17:42:59.325Z,21.17
2023-02-13T17:45:29.077Z,21.42
2023-02-13T17:47:58.066Z,21.05
2023-02-13T17:50:30.342Z,22.02
2023-02-13T17:52:58.945Z,23.20
2023-02-13T17:55:31.267Z,23.13
2023-02-13T17:58:00.066Z,23.35
2023-02-13T18:00:31.512Z,23.35
2023-02-13T18:03:00.868Z,22.85
2023-02-13T18:05:31.667Z,23.88
2023-02-13T18:08:02.221Z,22.67
2023-02-13T18:10:32.250Z,22.95
2023-02-13T18:13:04.776Z,23.70
2023-02-13T18:15:33.885Z,26.05
2023-02-13T18:18:02.558Z,25.88
2023-02-13T18:20:32.872Z,27.23
2023-02-13T18:23:00.760Z,25.85
2023-02-13T18:25:29.231Z,25.10
2023-02-13T18:27:57.804Z,25.27
2023-02-13T18:30:26.022Z,25.50
2023-02-13T18:32:59.120Z,25.85
2023-02-13T18:35:27.421Z,25.67
2023-02-13T18:38:00.593Z,26.70
2023-02-13T18:40:28.556Z,26.10
2023-02-13T18:42:56.330Z,27.27
2023-02-13T18:45:24.781Z,28.05
2023-02-13T18:47:52.912Z,27.27
2023-02-13T18:50:21.092Z,28.70
2023-02-13T18:52:49.112Z,28.45
2023-02-13T18:55:18.600Z,28.48
2023-02-13T18:57:48.265Z,30.17
2023-02-13T19:00:17.607Z,27.73
2023-02-13T19:02:45.912Z,30.65
2023-02-13T19:05:13.736Z,29.60
2023-02-13T19:07:41.626Z,30.10
2023-02-13T19:10:10.046Z,30.00
2023-02-13T19:12:40.851Z,30.58
2023-02-13T19:15:09.641Z,31.27
2023-02-13T19:17:38.745Z,32.10
2023-02-13T19:20:08.413Z,31.83
2023-02-13T19:22:36.454Z,31.80
2023-02-13T19:25:04.955Z,31.58
2023-02-13T19:27:33.195Z,32.95
2023-02-13T19:30:03.313Z,32.10
2023-02-13T19:32:33.772Z,31.33
2023-02-13T19:35:01.991Z,31.42
2023-02-13T19:37:35.768Z,30.35
2023-02-13T19:40:11.235Z,31.90
2023-02-13T19:42:40.276Z,34.22
2023-02-13T19:45:14.412Z,31.98
2023-02-13T19:47:43.069Z,32.83
2023-02-13T19:50:11.647Z,31.98
2023-02-13T19:52:40.032Z,31.98
2023-02-13T19:55:08.969Z,32.53
2023-02-13T19:57:37.278Z,32.53
2023-02-13T20:00:06.055Z,33.63
2023-02-13T20:02:43.736Z,37.67
2023-02-13T20:05:11.643Z,36.10
2023-02-13T20:07:39.627Z,37.17
2023-02-13T20:10:09.722Z,35.83
2023-02-13T20:12:38.100Z,33.05
2023-02-13T20:15:06.783Z,34.35
2023-02-13T20:17:37.255Z,34.25
2023-02-13T20:20:08.124Z,33.78
2023-02-13T20:22:37.144Z,34.47
2023-02-13T20:25:05.554Z,34.10
2023-02-13T20:27:34.311Z,34.20
2023-02-13T20:30:06.688Z,35.97
2023-02-13T20:32:36.058Z,35.17
2023-02-13T20:35:04.395Z,34.90
2023-02-13T20:37:35.360Z,35.00
2023-02-13T20:40:03.603Z,34.78
2023-02-13T20:42:33.748Z,37.80
2023-02-13T20:45:01.834Z,37.63
2023-02-13T20:47:29.928Z,37.58
2023-02-13T20:49:57.936Z,38.55
2023-02-13T20:52:25.802Z,36.33
2023-02-13T20:54:55.430Z,37.42
2023-02-13T20:57:23.680Z,37.33
2023-02-13T20:59:53.073Z,35.65
2023-02-13T21:02:21.145Z,37.13
2023-02-13T21:04:51.338Z,37.55
2023-02-13T21:07:19.923Z,38.80
2023-02-13T21:09:48.403Z,37.03
2023-02-13T21:12:17.770Z,37.03
2023-02-13T21:14:45.697Z,37.85
2023-02-13T21:17:13.993Z,38.83
2023-02-13T21:19:44.290Z,39.13
2023-02-13T21:22:12.457Z,36.90
2023-02-13T21:24:41.169Z,35.28
2023-02-13T21:27:10.429Z,38.38
2023-02-13T21:29:40.484Z,37.60
2023-02-13T21:32:09.331Z,37.33
2023-02-13T21:34:37.589Z,37.85
2023-02-13T21:37:05.626Z,34.72
2023-02-13T21:39:33.518Z,34.35
2023-02-13T21:42:01.593Z,33.80
2023-02-13T21:44:29.383Z,35.13
2023-02-13T21:46:58.963Z,33.45
2023-02-13T21:49:27.261Z,32.70
2023-02-13T21:51:55.349Z,32.85
2023-02-13T21:54:23.172Z,32.13
2023-02-13T21:56:51.797Z,32.45
2023-02-13T21:59:19.667Z,31.63
2023-02-13T22:01:50.380Z,30.20
2023-02-13T22:04:20.158Z,30.45
2023-02-13T22:06:51.057Z,27.77
2023-02-13T22:09:20.624Z,29.05
2023-02-13T22:11:49.962Z,29.83
2023-02-13T22:14:19.361Z,30.30
2023-02-13T22:16:48.216Z,29.52
2023-02-13T22:19:17.046Z,28.40
2023-02-13T22:21:46.291Z,29.45
2023-02-13T22:24:14.416Z,29.00
2023-02-13T22:26:45.239Z,28.17
2023-02-13T22:29:14.862Z,29.92
2023-02-13T22:31:43.489Z,31.40
2023-02-13T22:34:13.367Z,31.17
2023-02-13T22:36:42.012Z,30.98
2023-02-13T22:39:12.019Z,31.65
2023-02-13T22:41:40.127Z,31.52
2023-02-13T22:44:08.243Z,32.40
2023-02-13T22:46:36.396Z,31.05
2023-02-13T22:49:04.237Z,30.58
2023-02-13T22:51:34.529Z,32.03
2023-02-13T22:54:02.761Z,30.65
2023-02-13T22:56:32.766Z,31.58
2023-02-13T22:59:00.981Z,30.73
2023-02-13T23:01:30.057Z,29.23
2023-02-13T23:03:59.834Z,29.75
2023-02-13T23:06:28.548Z,30.42
2023-02-13T23:08:58.323Z,29.08
2023-02-13T23:11:44.751Z,28.45
2023-02-13T23:14:14.450Z,28.73
2023-02-13T23:17:00.134Z,29.98
2023-02-13T23:19:29.878Z,29.02
2023-02-13T23:21:58.159Z,29.13
2023-02-13T23:24:26.022Z,30.13
2023-02-13T23:26:54.150Z,29.10
2023-02-13T23:29:23.457Z,30.45
2023-02-13T23:31:54.633Z,29.92
2023-02-13T23:34:23.734Z,28.08
2023-02-13T23:36:51.576Z,26.50
2023-02-13T23:39:20.026Z,26.58
2023-02-13T23:41:48.107Z,25.17
2023-02-13T23:44:15.994Z,25.67
2023-02-13T23:46:45.730Z,24.80
2023-02-13T23:49:13.617Z,25.45
2023-02-13T23:51:41.518Z,26.10
2023-02-13T23:54:11.842Z,25.30
2023-02-13T23:56:39.883Z,24.13
2023-02-13T23:59:07.795Z,25.45
